Time;durP1;ratioP1;P1;durP2;ratioP2;P2;SDS_P1;SDS_P2;PMS_P1;PMS_P2;Temp;Humidity;BMP_temperature;BMP_pressure;BME280_temperature;BME280_humidity;BME280_pressure;Samples;Min_cycle;Max_cycle;Signal;HPM_P1;HPM_P2
2022/03/21 00:00:59;;;;;;;78.43;55.28;;;3.90;99.90;;;;;;5032906;28;20040;-76
2022/03/21 00:03:28;;;;;;;79.22;54.80;;;3.70;99.90;;;;;;5051059;28;20174;-76
2022/03/21 00:05:55;;;;;;;85.13;59.15;;;3.70;99.90;;;;;;5067616;28;20051;-76
2022/03/21 00:08:22;;;;;;;82.90;56.35;;;3.80;99.90;;;;;;5068796;28;20055;-74
2022/03/21 00:10:49;;;;;;;96.25;59.47;;;3.80;99.90;;;;;;5069100;28;20446;-77
2022/03/21 00:13:15;;;;;;;79.93;55.63;;;3.80;99.90;;;;;;5069382;28;20033;-78
2022/03/21 00:15:43;;;;;;;82.88;59.53;;;3.80;99.90;;;;;;5069511;28;20441;-78
2022/03/21 00:18:09;;;;;;;78.15;55.58;;;3.80;99.90;;;;;;5066852;28;20064;-77
2022/03/21 00:20:35;;;;;;;79.50;55.13;;;3.70;99.90;;;;;;5068953;28;20120;-78
2022/03/21 00:23:01;;;;;;;80.68;56.92;;;3.80;99.90;;;;;;5067536;28;20127;-77
2022/03/21 00:25:27;;;;;;;83.13;58.40;;;3.70;99.90;;;;;;5069856;28;20380;-77
2022/03/21 00:27:54;;;;;;;83.97;57.55;;;3.70;99.90;;;;;;5062839;28;20047;-77
2022/03/21 00:30:19;;;;;;;78.22;55.55;;;3.70;99.90;;;;;;5065531;28;20036;-77
2022/03/21 00:32:46;;;;;;;72.30;53.20;;;3.70;99.90;;;;;;5053978;28;20056;-79
2022/03/21 00:35:15;;;;;;;87.07;60.38;;;3.70;99.90;;;;;;5050043;28;20537;-77
2022/03/21 00:37:41;;;;;;;83.45;60.08;;;3.60;99.90;;;;;;5066475;28;20090;-77
2022/03/21 00:40:08;;;;;;;85.88;60.03;;;3.60;99.90;;;;;;5070011;28;20044;-78
2022/03/21 00:42:35;;;;;;;86.55;60.92;;;3.70;99.90;;;;;;5068525;28;20406;-77
2022/03/21 00:45:02;;;;;;;80.47;58.30;;;3.70;99.90;;;;;;5069974;28;20076;-77
2022/03/21 00:47:28;;;;;;;88.63;58.97;;;3.70;99.90;;;;;;5069011;28;20071;-77
2022/03/21 00:49:54;;;;;;;90.85;62.53;;;3.70;99.90;;;;;;5070151;28;20678;-77
2022/03/21 00:52:20;;;;;;;89.18;60.25;;;3.70;99.90;;;;;;5068057;28;20076;-77
2022/03/21 00:54:46;;;;;;;87.78;58.08;;;3.70;99.90;;;;;;5068640;28;20056;-78
2022/03/21 00:57:11;;;;;;;83.80;58.55;;;3.80;99.90;;;;;;5069903;28;20242;-77
2022/03/21 00:59:37;;;;;;;78.85;55.95;;;3.70;99.90;;;;;;5065288;28;20079;-77
2022/03/21 01:02:03;;;;;;;87.53;60.17;;;3.70;99.90;;;;;;5055440;28;20063;-78
2022/03/21 01:04:29;;;;;;;79.57;56.90;;;3.70;99.90;;;;;;5058209;28;20087;-77
2022/03/21 01:06:55;;;;;;;81.72;58.90;;;3.70;99.90;;;;;;5050493;28;20556;-76
2022/03/21 01:09:21;;;;;;;84.38;57.72;;;3.70;99.90;;;;;;5070025;28;20044;-76
2022/03/21 01:11:46;;;;;;;81.18;57.80;;;3.70;99.90;;;;;;5068109;28;20040;-77
2022/03/21 01:14:13;;;;;;;85.00;61.35;;;3.70;99.90;;;;;;5065904;28;20120;-78
2022/03/21 01:16:38;;;;;;;80.70;59.28;;;3.70;99.90;;;;;;5068677;28;20036;-77
2022/03/21 01:19:05;;;;;;;83.85;59.13;;;3.70;99.90;;;;;;5062791;28;20556;-77
2022/03/21 01:21:31;;;;;;;85.18;57.90;;;3.70;99.90;;;;;;5066907;28;20076;-78
2022/03/21 01:23:57;;;;;;;83.97;59.78;;;3.70;99.90;;;;;;5061114;28;20064;-78
2022/03/21 01:26:22;;;;;;;77.95;55.95;;;3.70;99.90;;;;;;5049870;28;20037;-77
2022/03/21 01:28:48;;;;;;;76.13;53.40;;;3.60;99.90;;;;;;5061017;28;20483;-77
2022/03/21 01:31:14;;;;;;;84.43;57.30;;;3.50;99.90;;;;;;5065833;28;20348;-77
2022/03/21 01:33:41;;;;;;;86.15;58.28;;;3.60;99.90;;;;;;5060601;28;20085;-77
2022/03/21 01:36:07;;;;;;;76.03;55.95;;;3.50;99.90;;;;;;5063251;28;20048;-77
2022/03/21 01:38:33;;;;;;;75.45;54.45;;;3.40;99.90;;;;;;5063253;28;20047;-77
2022/03/21 01:40:59;;;;;;;72.75;51.55;;;3.40;99.90;;;;;;5069184;28;20068;-77
2022/03/21 01:43:25;;;;;;;79.53;54.45;;;3.30;99.90;;;;;;5071597;28;20064;-78
2022/03/21 01:45:51;;;;;;;76.93;54.28;;;3.40;99.90;;;;;;5072554;28;20040;-77
2022/03/21 01:48:17;;;;;;;78.88;53.85;;;3.40;99.90;;;;;;5062676;28;20460;-78
2022/03/21 01:50:43;;;;;;;76.43;54.53;;;3.50;99.90;;;;;;5073093;28;20036;-77
2022/03/21 01:55:56;;;;;;;76.65;53.58;;;3.40;99.90;;;;;;5069539;28;20116;-77
2022/03/21 01:58:25;;;;;;;92.88;57.88;;;3.60;99.90;;;;;;5055676;28;20052;-79
2022/03/21 02:00:51;;;;;;;84.75;57.97;;;3.60;99.90;;;;;;5073044;28;20367;-77
2022/03/21 02:03:19;;;;;;;79.82;55.03;;;3.50;99.90;;;;;;5063151;28;20029;-77
2022/03/21 02:05:49;;;;;;;77.93;55.08;;;3.40;99.90;;;;;;5054832;28;21038;-77
2022/03/21 02:08:15;;;;;;;86.50;59.28;;;3.50;99.90;;;;;;5070937;28;20035;-76
2022/03/21 02:10:44;;;;;;;82.82;60.17;;;3.50;99.90;;;;;;5063829;28;20458;-77
2022/03/21 02:13:10;;;;;;;85.80;59.10;;;3.50;99.90;;;;;;5070581;28;20138;-77
2022/03/21 02:15:36;;;;;;;78.47;56.30;;;3.40;99.90;;;;;;5071611;28;20403;-76
2022/03/21 02:18:03;;;;;;;86.80;61.65;;;3.50;99.90;;;;;;5072033;28;20036;-76
2022/03/21 02:20:34;;;;;;;78.60;57.78;;;3.40;99.90;;;;;;5072210;28;20041;-77
2022/03/21 02:23:30;;;;;;;83.30;57.42;;;3.30;99.90;;;;;;5069954;28;20044;-78
2022/03/21 02:25:56;;;;;;;86.75;61.08;;;3.30;99.90;;;;;;5065163;28;20044;-74
2022/03/21 02:28:24;;;;;;;85.55;61.95;;;3.30;99.90;;;;;;5060083;28;20066;-78
2022/03/21 02:30:50;;;;;;;81.70;53.08;;;3.30;99.90;;;;;;5069808;28;20092;-76
2022/03/21 02:33:17;;;;;;;81.32;58.72;;;3.30;99.90;;;;;;5070294;28;20066;-77
2022/03/21 02:35:46;;;;;;;90.35;62.58;;;3.40;99.90;;;;;;5065455;28;20063;-78
2022/03/21 02:38:13;;;;;;;87.00;59.47;;;3.40;99.90;;;;;;5070768;28;20505;-77
2022/03/21 02:40:38;;;;;;;90.45;57.58;;;3.40;99.90;;;;;;5058521;28;20049;-77
2022/03/21 02:43:04;;;;;;;87.80;61.67;;;3.40;99.90;;;;;;5038599;28;20051;-77
2022/03/21 02:45:30;;;;;;;89.97;61.40;;;3.40;99.90;;;;;;5071659;28;20399;-77
2022/03/21 02:47:56;;;;;;;96.30;61.47;;;3.30;99.90;;;;;;5069825;28;20136;-76
2022/03/21 02:50:34;;;;;;;88.93;62.22;;;3.30;99.90;;;;;;5055372;28;20136;-77
2022/03/21 02:53:00;;;;;;;92.65;61.83;;;3.40;99.90;;;;;;5069956;28;20517;-77
2022/03/21 02:55:25;;;;;;;92.07;61.55;;;3.30;99.90;;;;;;5061233;28;20115;-78
2022/03/21 02:57:51;;;;;;;98.93;63.42;;;3.30;99.90;;;;;;5057076;28;20123;-78
2022/03/21 03:00:17;;;;;;;89.82;64.18;;;3.30;99.90;;;;;;5061895;28;20063;-78
2022/03/21 03:02:42;;;;;;;88.63;58.63;;;3.30;99.90;;;;;;5064433;28;20043;-77
2022/03/21 03:05:08;;;;;;;87.65;61.50;;;3.30;99.90;;;;;;5070779;28;20048;-79
2022/03/21 03:07:35;;;;;;;92.80;63.25;;;3.30;99.90;;;;;;5063570;28;20545;-77
2022/03/21 03:10:00;;;;;;;97.82;66.10;;;3.30;99.90;;;;;;5070326;28;20119;-78
2022/03/21 03:12:26;;;;;;;98.35;68.18;;;3.40;99.90;;;;;;5069845;28;20115;-78
2022/03/21 03:14:52;;;;;;;91.75;64.13;;;3.40;99.90;;;;;;5052083;28;20041;-77
2022/03/21 03:17:17;;;;;;;92.32;61.70;;;3.30;99.90;;;;;;5062240;28;20114;-77
2022/03/21 03:19:43;;;;;;;92.07;66.47;;;3.20;99.90;;;;;;5070143;28;20106;-77
2022/03/21 03:22:08;;;;;;;92.90;63.50;;;3.30;99.90;;;;;;5066717;28;20048;-77
2022/03/21 03:24:36;;;;;;;94.60;65.35;;;3.30;99.90;;;;;;5065657;28;20045;-78
2022/03/21 03:27:02;;;;;;;90.13;61.30;;;3.20;99.90;;;;;;5055458;28;20045;-77
2022/03/21 03:29:27;;;;;;;95.65;66.10;;;3.30;99.90;;;;;;5058600;28;20044;-77
2022/03/21 03:31:53;;;;;;;107.90;71.05;;;3.40;99.90;;;;;;5061418;28;20427;-78
2022/03/21 03:34:19;;;;;;;95.53;65.15;;;3.40;99.90;;;;;;5070435;28;20479;-78
2022/03/21 03:36:45;;;;;;;100.43;65.80;;;3.40;99.90;;;;;;5057793;28;20071;-78
2022/03/21 03:39:11;;;;;;;100.38;64.65;;;3.40;99.90;;;;;;5062143;28;20549;-78
2022/03/21 03:41:37;;;;;;;88.80;63.60;;;3.30;99.90;;;;;;5070553;28;20127;-78
2022/03/21 03:44:03;;;;;;;98.30;64.38;;;3.30;99.90;;;;;;5071181;28;20062;-79
2022/03/21 03:46:28;;;;;;;94.80;66.25;;;3.30;99.90;;;;;;5057312;28;20041;-77
2022/03/21 03:48:54;;;;;;;89.57;61.33;;;3.20;99.90;;;;;;5051159;28;20056;-77
2022/03/21 03:51:20;;;;;;;92.90;60.55;;;3.40;99.90;;;;;;5050089;28;20056;-78
2022/03/21 03:53:46;;;;;;;90.90;59.72;;;3.40;99.90;;;;;;5070220;28;20044;-76
2022/03/21 03:56:11;;;;;;;93.25;58.97;;;3.40;99.90;;;;;;5060917;28;20044;-78
2022/03/21 03:58:38;;;;;;;90.65;60.33;;;3.40;99.90;;;;;;5066341;28;20036;-78
2022/03/21 04:01:05;;;;;;;88.90;56.50;;;3.40;99.90;;;;;;5062943;28;20110;-77
2022/03/21 04:03:47;;;;;;;90.90;58.10;;;3.40;99.90;;;;;;5068192;28;20044;-76
2022/03/21 04:06:17;;;;;;;82.60;57.40;;;3.40;99.90;;;;;;5053351;28;20041;-78
2022/03/21 04:08:45;;;;;;;89.85;57.15;;;3.40;99.90;;;;;;5062851;28;20442;-79
2022/03/21 04:11:11;;;;;;;95.95;61.42;;;3.40;99.90;;;;;;5068678;28;20044;-78
2022/03/21 04:13:37;;;;;;;82.93;57.65;;;3.40;99.90;;;;;;5069765;28;20036;-79
2022/03/21 04:16:03;;;;;;;85.05;57.05;;;3.40;99.90;;;;;;5070777;28;20101;-78
2022/03/21 04:18:29;;;;;;;85.15;57.50;;;3.40;99.90;;;;;;5069898;28;20036;-78
2022/03/21 04:20:55;;;;;;;84.13;55.03;;;3.30;99.90;;;;;;5051803;28;20040;-78
2022/03/21 04:23:20;;;;;;;87.00;58.25;;;3.30;99.90;;;;;;5060001;28;20098;-78
2022/03/21 04:25:47;;;;;;;85.90;56.33;;;3.30;99.90;;;;;;5069121;28;20055;-78
2022/03/21 04:28:14;;;;;;;88.35;53.67;;;3.20;99.90;;;;;;5069289;28;20089;-77
2022/03/21 04:30:41;;;;;;;88.65;56.85;;;3.20;99.90;;;;;;5063827;28;20044;-77
2022/03/21 04:33:10;;;;;;;82.13;51.95;;;3.30;99.90;;;;;;5062461;28;20040;-78
2022/03/21 04:35:37;;;;;;;78.00;50.10;;;3.20;99.90;;;;;;5067450;28;20036;-75
2022/03/21 04:38:04;;;;;;;83.00;50.90;;;3.20;99.90;;;;;;5058835;28;20044;-76
2022/03/21 04:40:30;;;;;;;82.38;54.63;;;3.10;99.90;;;;;;5063429;28;20036;-78
2022/03/21 04:42:55;;;;;;;82.28;53.78;;;3.20;99.90;;;;;;5068397;28;20083;-77
2022/03/21 04:45:21;;;;;;;79.55;53.17;;;3.10;99.90;;;;;;5063822;28;20068;-77
2022/03/21 04:47:48;;;;;;;83.32;54.15;;;3.10;99.90;;;;;;5055337;28;20041;-78
2022/03/21 04:50:13;;;;;;;79.60;51.33;;;3.20;99.90;;;;;;5053252;28;20049;-78
2022/03/21 04:52:39;;;;;;;78.20;52.25;;;3.10;99.90;;;;;;5060272;28;20501;-77
2022/03/21 04:55:07;;;;;;;75.82;50.25;;;3.00;99.90;;;;;;5069584;28;20133;-78
2022/03/21 04:57:35;;;;;;;79.28;48.40;;;3.00;99.90;;;;;;5068688;28;20090;-79
2022/03/21 05:00:01;;;;;;;71.35;48.30;;;2.90;99.90;;;;;;5063687;28;20032;-79
2022/03/21 05:02:27;;;;;;;74.75;48.08;;;2.90;99.90;;;;;;5068967;28;20056;-77
2022/03/21 05:04:53;;;;;;;76.45;49.22;;;3.00;99.90;;;;;;5068334;28;20041;-78
2022/03/21 05:07:19;;;;;;;71.10;46.38;;;3.10;99.90;;;;;;5068128;28;20047;-78
2022/03/21 05:09:45;;;;;;;77.95;50.10;;;3.00;99.90;;;;;;5061648;28;20037;-77
2022/03/21 05:12:12;;;;;;;70.43;45.53;;;3.00;99.90;;;;;;5067553;28;20055;-77
2022/03/21 05:14:37;;;;;;;87.22;46.92;;;3.00;99.90;;;;;;5063232;28;20048;-78
2022/03/21 05:17:05;;;;;;;74.85;48.45;;;3.00;99.90;;;;;;5052250;28;20067;-77
2022/03/21 05:19:36;;;;;;;76.75;48.17;;;3.00;99.90;;;;;;5072844;28;20040;-77
2022/03/21 05:22:06;;;;;;;78.03;51.72;;;3.10;99.90;;;;;;5064878;28;20039;-78
2022/03/21 05:32:45;;;;;;;73.22;45.40;;;2.90;99.90;;;;;;5058521;28;20052;-78
2022/03/21 05:37:55;;;;;;;75.80;43.85;;;2.90;99.90;;;;;;5072911;28;20057;-78
2022/03/21 05:40:34;;;;;;;72.75;45.83;;;3.00;99.90;;;;;;5072679;28;20067;-79
2022/03/21 05:43:01;;;;;;;73.57;45.65;;;2.90;99.90;;;;;;5064636;28;20084;-78
2022/03/21 05:45:28;;;;;;;68.15;44.33;;;3.00;99.90;;;;;;5069497;28;20050;-77
2022/03/21 05:50:38;;;;;;;71.38;44.78;;;3.10;99.90;;;;;;5055602;28;20045;-78
2022/03/21 05:53:05;;;;;;;75.43;48.53;;;3.10;99.90;;;;;;5071929;28;20032;-77
2022/03/21 05:55:32;;;;;;;75.22;46.88;;;3.20;99.90;;;;;;5072393;28;20044;-77
2022/03/21 05:57:58;;;;;;;74.72;44.55;;;3.20;99.90;;;;;;5066458;28;20479;-76
2022/03/21 06:00:25;;;;;;;80.65;45.70;;;3.30;99.90;;;;;;5071909;28;20033;-77
2022/03/21 06:02:51;;;;;;;74.57;47.50;;;3.40;99.90;;;;;;5072746;28;20557;-77
2022/03/21 06:05:18;;;;;;;70.68;44.15;;;3.40;99.90;;;;;;5053836;28;20476;-77
2022/03/21 06:07:45;;;;;;;69.40;45.17;;;3.50;99.90;;;;;;5056652;28;20131;-77
2022/03/21 06:10:12;;;;;;;77.05;46.67;;;3.50;99.90;;;;;;5070999;28;20582;-77
2022/03/21 06:12:38;;;;;;;72.40;46.63;;;3.60;99.90;;;;;;5057877;28;20454;-76
2022/03/21 06:15:04;;;;;;;66.97;45.72;;;3.60;99.90;;;;;;5069996;28;20049;-76
2022/03/21 06:17:34;;;;;;;67.38;44.92;;;3.60;99.90;;;;;;5062868;28;20045;-76
2022/03/21 06:20:00;;;;;;;73.55;46.25;;;3.60;99.90;;;;;;5070789;28;20041;-75
2022/03/21 06:22:26;;;;;;;70.38;44.63;;;3.60;99.90;;;;;;5065378;28;20743;-75
2022/03/21 06:24:51;;;;;;;61.83;41.30;;;3.70;99.90;;;;;;5064893;28;20042;-76
2022/03/21 06:27:17;;;;;;;70.03;44.85;;;3.70;99.90;;;;;;5069486;28;20037;-76
2022/03/21 06:29:42;;;;;;;70.22;44.28;;;3.70;99.90;;;;;;5070803;28;20040;-75
2022/03/21 06:32:08;;;;;;;67.22;45.47;;;3.80;99.90;;;;;;5069668;28;20052;-76
2022/03/21 06:34:34;;;;;;;60.42;42.80;;;3.70;99.90;;;;;;5057084;28;20048;-75
2022/03/21 06:37:02;;;;;;;70.82;44.15;;;3.70;99.90;;;;;;5064995;28;20044;-76
2022/03/21 06:39:27;;;;;;;69.30;47.03;;;3.80;99.90;;;;;;5052705;28;20037;-80
2022/03/21 06:41:53;;;;;;;69.35;42.03;;;3.80;99.90;;;;;;5059381;28;20044;-79
2022/03/21 06:44:21;;;;;;;70.20;40.92;;;3.80;99.90;;;;;;5071876;28;20056;-79
2022/03/21 06:46:46;;;;;;;67.88;45.22;;;3.80;99.90;;;;;;5058351;28;20421;-75
2022/03/21 06:49:12;;;;;;;61.17;41.35;;;3.90;99.90;;;;;;5051670;28;20057;-76
2022/03/21 06:51:38;;;;;;;70.10;42.95;;;4.00;99.90;;;;;;5051200;28;20053;-74
2022/03/21 06:54:03;;;;;;;61.13;41.88;;;4.00;99.90;;;;;;5068705;28;20040;-75
2022/03/21 06:56:29;;;;;;;63.38;43.53;;;4.00;99.90;;;;;;5070287;28;20040;-77
2022/03/21 06:58:54;;;;;;;66.03;44.38;;;4.10;99.90;;;;;;5061313;28;20099;-75
2022/03/21 07:01:20;;;;;;;62.50;41.47;;;4.10;99.90;;;;;;5070955;28;20090;-76
2022/03/21 07:03:46;;;;;;;66.35;43.95;;;4.20;99.90;;;;;;5065287;28;20052;-75
2022/03/21 07:06:12;;;;;;;68.38;45.45;;;4.30;99.90;;;;;;5068660;28;20037;-77
2022/03/21 07:08:38;;;;;;;65.05;45.88;;;4.30;99.90;;;;;;5067896;28;20049;-76
2022/03/21 07:11:04;;;;;;;62.20;43.00;;;4.40;99.90;;;;;;5059833;28;20059;-75
2022/03/21 07:13:30;;;;;;;59.08;41.63;;;4.50;99.90;;;;;;5069559;28;20395;-77
2022/03/21 07:15:56;;;;;;;56.45;39.75;;;4.60;99.90;;;;;;5070373;28;20044;-73
2022/03/21 07:18:21;;;;;;;56.22;40.63;;;4.70;99.90;;;;;;5063071;28;20048;-75
2022/03/21 07:20:47;;;;;;;56.58;40.40;;;4.70;99.90;;;;;;5061738;28;20040;-76
2022/03/21 07:23:12;;;;;;;61.75;40.08;;;4.80;99.90;;;;;;5056931;28;20462;-76
2022/03/21 07:25:38;;;;;;;55.78;39.85;;;4.90;99.90;;;;;;5070590;28;20182;-76
2022/03/21 07:28:04;;;;;;;61.95;39.75;;;5.10;99.90;;;;;;5062379;28;20049;-76
2022/03/21 07:30:30;;;;;;;57.40;39.05;;;5.10;99.90;;;;;;5065487;28;20098;-75
2022/03/21 07:32:57;;;;;;;54.65;38.67;;;5.30;99.90;;;;;;5065866;28;20502;-73
2022/03/21 07:35:23;;;;;;;54.33;39.92;;;5.40;99.90;;;;;;5067578;28;20380;-76
2022/03/21 07:37:53;;;;;;;52.70;37.20;;;5.50;99.90;;;;;;5067732;28;20043;-76
2022/03/21 07:40:19;;;;;;;;;;;5.50;99.90;;;;;;5063501;28;20072;-76
2022/03/21 07:42:46;;;;;;;52.45;35.10;;;5.60;99.90;;;;;;5068499;28;19970;-75
2022/03/21 07:47:58;;;;;;;45.00;32.50;;;5.80;99.90;;;;;;5065837;28;20380;-75
2022/03/21 07:50:25;;;;;;;41.97;33.42;;;5.90;99.90;;;;;;5066405;28;20079;-75
2022/03/21 07:52:52;;;;;;;46.78;35.78;;;6.10;99.90;;;;;;5068493;28;20387;-76
2022/03/21 07:55:18;;;;;;;42.65;30.52;;;6.30;99.90;;;;;;5069116;28;20352;-76
2022/03/21 07:57:43;;;;;;;43.50;29.65;;;6.30;99.90;;;;;;5068034;28;20059;-75
2022/03/21 08:00:10;;;;;;;40.90;29.05;;;6.50;99.90;;;;;;5069107;28;20090;-80
2022/03/21 08:02:37;;;;;;;47.47;31.65;;;6.50;99.90;;;;;;5052516;28;20091;-75
2022/03/21 08:05:04;;;;;;;44.60;30.13;;;6.60;99.90;;;;;;5054638;28;20060;-75
2022/03/21 08:07:31;;;;;;;43.33;31.73;;;6.70;99.90;;;;;;5067421;28;20048;-74
2022/03/21 08:09:56;;;;;;;39.45;28.83;;;6.90;99.90;;;;;;5068049;28;20098;-74
2022/03/21 08:12:22;;;;;;;38.15;30.08;;;6.90;99.90;;;;;;5060735;28;20463;-75
2022/03/21 08:14:47;;;;;;;41.85;31.55;;;7.00;99.90;;;;;;5055776;28;20040;-74
2022/03/21 08:17:13;;;;;;;41.90;30.13;;;7.10;99.90;;;;;;5068946;28;20045;-75
2022/03/21 08:19:39;;;;;;;41.17;29.60;;;7.20;99.90;;;;;;5067668;28;20076;-75
2022/03/21 08:22:04;;;;;;;38.10;29.88;;;7.30;99.90;;;;;;5060201;28;20063;-75
2022/03/21 08:24:34;;;;;;;45.80;30.75;;;7.30;99.90;;;;;;5066562;28;20036;-75
2022/03/21 08:27:00;;;;;;;46.90;29.83;;;7.30;99.90;;;;;;5069525;28;20052;-75
2022/03/21 08:29:26;;;;;;;42.25;29.23;;;7.40;99.90;;;;;;5060217;28;20511;-75
2022/03/21 08:31:52;;;;;;;39.85;29.40;;;7.60;99.90;;;;;;5056511;28;20041;-77
2022/03/21 08:34:17;;;;;;;40.15;27.83;;;7.70;99.90;;;;;;5056858;28;20098;-78
2022/03/21 08:36:43;;;;;;;40.60;29.85;;;7.80;99.90;;;;;;5067219;28;20072;-76
2022/03/21 08:39:11;;;;;;;37.95;28.25;;;7.90;99.90;;;;;;5067736;28;20560;-76
2022/03/21 08:41:38;;;;;;;39.97;26.75;;;8.00;99.90;;;;;;5054859;28;20041;-77
2022/03/21 08:44:04;;;;;;;38.10;28.00;;;8.10;99.90;;;;;;5054796;28;20498;-75
2022/03/21 08:46:29;;;;;;;36.53;26.85;;;8.20;99.90;;;;;;5055051;28;20040;-75
2022/03/21 08:51:39;;;;;;;42.47;27.00;;;8.40;99.90;;;;;;5064338;28;20098;-80
2022/03/21 08:54:07;;;;;;;40.28;26.33;;;8.50;99.90;;;;;;5069129;28;20587;-79
2022/03/21 08:56:33;;;;;;;39.45;27.17;;;8.60;99.90;;;;;;5069398;28;20045;-79
2022/03/21 08:58:59;;;;;;;39.38;25.42;;;8.70;99.90;;;;;;5069816;28;20500;-81
2022/03/21 09:01:25;;;;;;;38.17;26.98;;;8.80;99.90;;;;;;5064214;28;20116;-78
2022/03/21 09:03:51;;;;;;;35.53;26.75;;;8.90;99.90;;;;;;5052595;28;20048;-78
2022/03/21 09:06:20;;;;;;;31.73;24.70;;;8.90;99.90;;;;;;5063639;28;20064;-77
2022/03/21 09:08:47;;;;;;;33.13;26.50;;;9.00;99.90;;;;;;5062232;28;20119;-79
2022/03/21 09:11:13;;;;;;;31.70;25.00;;;9.20;99.90;;;;;;5058728;28;20064;-79
2022/03/21 09:13:39;;;;;;;31.30;25.17;;;9.10;99.90;;;;;;5051375;28;20059;-78
2022/03/21 09:16:05;;;;;;;34.50;24.15;;;9.40;99.90;;;;;;5069265;28;20052;-78
2022/03/21 09:18:31;;;;;;;32.95;24.80;;;9.40;99.90;;;;;;5067024;28;20032;-79
2022/03/21 09:20:57;;;;;;;33.80;24.52;;;9.60;99.90;;;;;;5062002;28;20035;-78
2022/03/21 09:23:23;;;;;;;40.28;27.50;;;9.40;99.90;;;;;;5074869;28;20040;-79
2022/03/21 09:25:49;;;;;;;35.67;25.85;;;9.60;99.90;;;;;;5068155;28;20527;-79
2022/03/21 09:28:14;;;;;;;35.70;25.63;;;9.60;99.90;;;;;;5063469;28;20048;-79
2022/03/21 09:30:40;;;;;;;32.63;24.88;;;9.60;99.90;;;;;;5072529;28;20052;-79
2022/03/21 09:33:06;;;;;;;29.65;25.58;;;9.70;99.90;;;;;;5070029;28;20041;-78
2022/03/21 09:35:31;;;;;;;38.13;24.13;;;9.90;99.90;;;;;;5053170;28;20047;-78
2022/03/21 09:37:57;;;;;;;30.45;23.67;;;9.80;99.90;;;;;;5070159;28;20574;-77
2022/03/21 09:40:24;;;;;;;30.83;22.55;;;10.00;99.90;;;;;;5067206;28;20045;-75
2022/03/21 09:42:50;;;;;;;35.85;26.02;;;10.10;99.90;;;;;;5065066;28;20045;-77
2022/03/21 09:45:16;;;;;;;33.65;24.67;;;10.20;99.90;;;;;;5067272;28;20051;-80
2022/03/21 09:50:36;;;;;;;29.25;22.83;;;10.40;99.90;;;;;;5058740;28;20049;-77
2022/03/21 09:53:07;;;;;;;36.97;25.35;;;10.20;99.90;;;;;;5056495;28;20040;-77
2022/03/21 09:55:33;;;;;;;32.70;23.90;;;10.40;99.90;;;;;;5066781;28;20043;-79
2022/03/21 09:57:59;;;;;;;32.50;23.50;;;10.60;99.90;;;;;;5060248;28;20041;-78
2022/03/21 10:00:28;;;;;;;32.10;22.60;;;10.70;99.90;;;;;;5066486;28;20089;-77
2022/03/21 10:02:54;;;;;;;41.25;25.33;;;10.60;99.90;;;;;;5067704;28;20045;-78
2022/03/21 10:05:38;;;;;;;30.35;21.65;;;10.60;99.90;;;;;;5071159;28;20517;-78
2022/03/21 10:08:15;;;;;;;32.13;21.85;;;10.50;99.90;;;;;;5061711;28;20041;-78
2022/03/21 10:10:50;;;;;;;33.42;22.70;;;10.80;99.90;;;;;;5060777;28;20568;-78
2022/03/21 10:13:17;;;;;;;33.10;23.70;;;10.90;99.90;;;;;;5065037;28;20041;-75
2022/03/21 10:15:43;;;;;;;33.42;22.08;;;11.10;99.90;;;;;;5062813;28;20135;-75
2022/03/21 10:18:11;;;;;;;28.63;21.30;;;11.10;99.90;;;;;;5057054;28;20136;-75
2022/03/21 10:20:38;;;;;;;30.27;22.23;;;11.20;99.90;;;;;;5068470;28;20048;-76
2022/03/21 10:23:23;;;;;;;30.95;22.58;;;11.10;99.90;;;;;;5070945;28;20064;-76
2022/03/21 10:25:50;;;;;;;26.77;20.55;;;11.20;99.90;;;;;;5071252;28;20510;-75
2022/03/21 10:28:35;;;;;;;23.75;16.73;;;11.30;99.90;;;;;;5067096;28;20056;-73
2022/03/21 10:31:02;;;;;;;28.75;21.25;;;11.20;99.90;;;;;;5070339;28;20041;-74
2022/03/21 10:33:28;;;;;;;24.42;17.77;;;11.30;99.90;;;;;;5069001;28;20582;-74
2022/03/21 10:35:54;;;;;;;29.00;18.17;;;11.50;99.90;;;;;;5068955;28;20437;-76
2022/03/21 10:38:31;;;;;;;23.17;18.45;;;11.50;99.90;;;;;;5069031;28;20037;-76
2022/03/21 10:40:56;;;;;;;22.63;15.85;;;11.60;99.90;;;;;;5067813;28;20118;-75
2022/03/21 10:43:23;;;;;;;25.02;17.65;;;11.50;99.90;;;;;;5058492;28;20486;-75
2022/03/21 10:45:54;;;;;;;18.83;14.45;;;11.70;99.90;;;;;;5067004;28;20041;-75
2022/03/21 10:48:21;;;;;;;;;;;11.50;99.90;;;;;;5069290;28;20049;-75
2022/03/21 10:50:51;;;;;;;25.08;17.45;;;11.30;99.90;;;;;;5053595;28;20459;-75
2022/03/21 10:53:20;;;;;;;24.45;16.23;;;11.50;99.90;;;;;;5069247;28;20032;-75
2022/03/21 10:55:48;;;;;;;24.02;16.85;;;11.60;99.90;;;;;;5071322;28;20140;-75
2022/03/21 10:58:32;;;;;;;24.23;15.85;;;12.00;99.90;;;;;;5067936;28;20067;-75
2022/03/21 11:01:31;;;;;;;25.92;17.65;;;11.70;99.90;;;;;;5070795;28;20045;-75
2022/03/21 11:04:00;;;;;;;26.43;17.97;;;11.80;99.90;;;;;;5051878;28;20120;-74
2022/03/21 11:06:27;;;;;;;24.40;16.70;;;12.00;99.90;;;;;;5058512;28;20044;-75
2022/03/21 11:08:54;;;;;;;22.67;14.70;;;12.00;99.90;;;;;;5070485;28;20048;-74
2022/03/21 11:11:20;;;;;;;22.38;16.02;;;12.10;99.90;;;;;;5070726;28;20048;-75
2022/03/21 11:13:47;;;;;;;18.23;14.80;;;11.90;99.90;;;;;;5059076;28;20040;-74
2022/03/21 11:16:16;;;;;;;22.50;15.95;;;12.10;99.90;;;;;;5071330;28;20044;-75
2022/03/21 11:18:45;;;;;;;20.90;15.60;;;12.10;99.90;;;;;;5070025;28;20032;-75
2022/03/21 11:21:13;;;;;;;22.45;16.13;;;12.10;99.90;;;;;;5063922;28;20067;-75
2022/03/21 11:23:39;;;;;;;23.98;15.20;;;12.30;99.90;;;;;;5058351;28;20098;-75
2022/03/21 11:26:10;;;;;;;24.00;17.35;;;12.20;99.90;;;;;;5071160;28;20041;-74
2022/03/21 11:29:06;;;;;;;20.40;15.77;;;12.30;99.90;;;;;;5066117;28;20124;-76
2022/03/21 11:31:56;;;;;;;23.73;15.88;;;12.40;99.90;;;;;;5051981;28;20041;-75
2022/03/21 11:35:01;;;;;;;22.17;15.10;;;12.40;99.90;;;;;;5064674;28;20037;-75
2022/03/21 11:37:33;;;;;;;21.85;15.65;;;12.40;99.90;;;;;;5055467;28;20156;-75
2022/03/21 11:40:24;;;;;;;19.75;13.73;;;12.30;99.90;;;;;;5054196;28;20094;-75
2022/03/21 11:42:51;;;;;;;22.33;15.68;;;12.50;99.90;;;;;;5065251;28;20135;-76
2022/03/21 11:45:24;;;;;;;20.33;13.73;;;12.60;99.90;;;;;;5070702;28;20560;-76
2022/03/21 11:48:10;;;;;;;18.90;14.80;;;12.40;99.90;;;;;;5065375;28;20101;-76
2022/03/21 11:50:36;;;;;;;22.17;15.32;;;12.40;99.90;;;;;;5051452;28;20451;-77
2022/03/21 11:53:09;;;;;;;23.98;16.05;;;12.50;99.90;;;;;;5059056;28;20044;-76
2022/03/21 11:55:37;;;;;;;24.77;17.08;;;12.50;99.90;;;;;;5070756;28;20091;-76
2022/03/21 11:58:21;;;;;;;21.95;15.65;;;12.40;99.90;;;;;;5069545;28;20043;-76
2022/03/21 12:01:06;;;;;;;23.88;14.93;;;12.50;99.90;;;;;;5070384;28;20136;-77
2022/03/21 12:03:32;;;;;;;21.30;14.20;;;12.70;99.90;;;;;;5070158;28;20040;-81
2022/03/21 12:06:18;;;;;;;19.90;14.43;;;12.80;99.90;;;;;;5067108;28;20037;-76
2022/03/21 12:08:45;;;;;;;22.63;14.85;;;12.70;99.70;;;;;;5063665;28;20560;-77
2022/03/21 12:11:40;;;;;;;20.42;15.57;;;12.70;99.90;;;;;;5068838;28;20036;-76
2022/03/21 12:14:40;;;;;;;26.00;17.10;;;12.60;99.90;;;;;;5066085;28;20055;-76
2022/03/21 12:17:12;;;;;;;;;;;12.80;99.90;;;;;;5066058;28;20044;-77
2022/03/21 12:19:51;;;;;;;24.02;16.85;;;12.80;99.90;;;;;;5068525;28;19975;-76
2022/03/21 12:22:29;;;;;;;20.10;14.27;;;12.80;99.90;;;;;;5067876;28;20056;-76
2022/03/21 12:25:06;;;;;;;19.55;14.55;;;12.80;99.90;;;;;;5062839;28;20456;-76
2022/03/21 12:27:36;;;;;;;23.15;15.77;;;12.90;99.90;;;;;;5065465;28;20048;-76
2022/03/21 12:30:20;;;;;;;24.05;15.73;;;13.10;99.90;;;;;;5065535;28;20035;-74
2022/03/21 12:32:50;;;;;;;20.10;15.02;;;13.00;98.10;;;;;;5063806;28;20636;-77
2022/03/21 12:35:31;;;;;;;25.75;15.48;;;12.90;98.70;;;;;;5038777;28;20463;-75
2022/03/21 12:38:24;;;;;;;21.23;14.50;;;13.00;99.30;;;;;;5052654;28;20062;-75
2022/03/21 12:40:50;;;;;;;21.23;14.20;;;13.10;99.30;;;;;;5043582;28;20056;-77
2022/03/21 12:43:27;;;;;;;21.60;13.95;;;13.30;99.60;;;;;;5056312;28;20398;-74
2022/03/21 12:46:06;;;;;;;19.92;13.43;;;13.50;99.40;;;;;;5064871;28;20036;-75
2022/03/21 12:48:34;;;;;;;24.20;14.77;;;13.50;98.70;;;;;;5052494;28;20143;-76
2022/03/21 12:51:00;;;;;;;21.75;15.15;;;13.50;99.90;;;;;;5065682;28;20451;-76
2022/03/21 12:53:44;;;;;;;25.33;14.75;;;13.50;99.90;;;;;;5065276;28;20116;-76
2022/03/21 12:56:11;;;;;;;24.45;14.95;;;13.40;98.40;;;;;;5058910;28;20048;-76
2022/03/21 12:58:42;;;;;;;22.05;13.85;;;13.40;98.10;;;;;;5067020;28;20051;-76
2022/03/21 13:01:08;;;;;;;19.70;13.82;;;13.40;99.70;;;;;;5068606;28;20495;-75
2022/03/21 13:03:34;;;;;;;25.27;15.07;;;13.50;97.50;;;;;;5068778;28;20340;-75
2022/03/21 13:11:39;;;;;;;22.17;14.57;;;13.70;98.00;;;;;;5054017;28;20202;-75